sensor_id;sensor_type;location;lat;lon;timestamp;pressure;altitude;pressure_sealevel;temperature;humidity
37892;BME280;45797;47.466;9.486;2023-02-04T00:03:11;97171.16;;;7.32;62.20
37892;BME280;45797;47.466;9.486;2023-02-04T00:08:17;97164.34;;;7.28;62.00
37892;BME280;45797;47.466;9.486;2023-02-04T00:13:18;97162.09;;;7.19;62.59
37892;BME280;45797;47.466;9.486;2023-02-04T00:18:25;97157.19;;;7.11;62.43
37892;BME280;45797;47.466;9.486;2023-02-04T00:23:25;97159.19;;;7.03;63.05
37892;BME280;45797;47.466;9.486;2023-02-04T00:28:31;97147.13;;;7.01;63.13
37892;BME280;45797;47.466;9.486;2023-02-04T00:33:34;97147.22;;;6.98;63.52
37892;BME280;45797;47.466;9.486;2023-02-04T00:38:44;97155.84;;;7.00;63.34
37892;BME280;45797;47.466;9.486;2023-02-04T00:43:46;97172.22;;;7.03;63.04
37892;BME280;45797;47.466;9.486;2023-02-04T00:48:46;97171.25;;;7.06;63.62
37892;BME280;45797;47.466;9.486;2023-02-04T00:53:47;97162.41;;;7.10;63.50
37892;BME280;45797;47.466;9.486;2023-02-04T00:58:48;97162.09;;;7.19;63.09
37892;BME280;45797;47.466;9.486;2023-02-04T01:03:48;97168.78;;;7.26;63.25
37892;BME280;45797;47.466;9.486;2023-02-04T01:08:48;97151.28;;;7.30;62.60
37892;BME280;45797;47.466;9.486;2023-02-04T01:13:51;97159.72;;;7.36;62.91
37892;BME280;45797;47.466;9.486;2023-02-04T01:19:06;97188.38;;;7.36;63.25
37892;BME280;45797;47.466;9.486;2023-02-04T01:24:07;97158.66;;;7.42;62.99
37892;BME280;45797;47.466;9.486;2023-02-04T01:29:44;97150.88;;;7.40;63.11
37892;BME280;45797;47.466;9.486;2023-02-04T01:34:45;97138.53;;;7.45;63.00
37892;BME280;45797;47.466;9.486;2023-02-04T01:39:45;97163.66;;;7.47;63.41
37892;BME280;45797;47.466;9.486;2023-02-04T01:44:48;97167.97;;;7.48;63.42
37892;BME280;45797;47.466;9.486;2023-02-04T01:49:52;97167.94;;;7.49;63.44
37892;BME280;45797;47.466;9.486;2023-02-04T01:55:03;97154.84;;;7.51;63.35
37892;BME280;45797;47.466;9.486;2023-02-04T02:00:10;97160.72;;;7.56;63.67
37892;BME280;45797;47.466;9.486;2023-02-04T02:05:17;97153.47;;;7.64;63.29
37892;BME280;45797;47.466;9.486;2023-02-04T02:10:20;97161.16;;;7.67;63.95
37892;BME280;45797;47.466;9.486;2023-02-04T02:15:22;97153.09;;;7.73;63.34
37892;BME280;45797;47.466;9.486;2023-02-04T02:20:24;97145.97;;;7.78;63.38
37892;BME280;45797;47.466;9.486;2023-02-04T02:25:28;97141.47;;;7.82;63.34
37892;BME280;45797;47.466;9.486;2023-02-04T02:30:29;97152.63;;;7.85;63.51
37892;BME280;45797;47.466;9.486;2023-02-04T02:35:29;97136.06;;;7.86;63.57
37892;BME280;45797;47.466;9.486;2023-02-04T02:40:30;97135.28;;;7.84;63.59
37892;BME280;45797;47.466;9.486;2023-02-04T02:45:31;97146.47;;;7.88;63.71
37892;BME280;45797;47.466;9.486;2023-02-04T02:50:35;97122.00;;;7.90;63.57
37892;BME280;45797;47.466;9.486;2023-02-04T02:55:52;97138.44;;;7.92;63.49
37892;BME280;45797;47.466;9.486;2023-02-04T03:00:59;97144.28;;;7.99;63.64
37892;BME280;45797;47.466;9.486;2023-02-04T03:06:27;97139.13;;;7.97;63.34
37892;BME280;45797;47.466;9.486;2023-02-04T03:11:28;97132.72;;;8.05;64.06
37892;BME280;45797;47.466;9.486;2023-02-04T03:16:36;97136.00;;;8.10;63.54
37892;BME280;45797;47.466;9.486;2023-02-04T03:21:37;97142.06;;;8.10;63.72
37892;BME280;45797;47.466;9.486;2023-02-04T03:26:37;97146.31;;;8.13;64.16
37892;BME280;45797;47.466;9.486;2023-02-04T03:31:41;97151.28;;;8.19;63.93
37892;BME280;45797;47.466;9.486;2023-02-04T03:36:42;97139.94;;;8.20;63.09
37892;BME280;45797;47.466;9.486;2023-02-04T03:41:49;97144.13;;;8.24;63.13
37892;BME280;45797;47.466;9.486;2023-02-04T03:46:56;97135.41;;;8.25;63.64
37892;BME280;45797;47.466;9.486;2023-02-04T03:51:58;97156.16;;;8.28;63.95
37892;BME280;45797;47.466;9.486;2023-02-04T03:56:59;97149.94;;;8.30;63.58
37892;BME280;45797;47.466;9.486;2023-02-04T04:01:59;97143.75;;;8.33;63.83
37892;BME280;45797;47.466;9.486;2023-02-04T04:07:00;97168.16;;;8.32;63.87
37892;BME280;45797;47.466;9.486;2023-02-04T04:12:01;97157.63;;;8.35;63.74
37892;BME280;45797;47.466;9.486;2023-02-04T04:17:05;97157.50;;;8.38;63.76
37892;BME280;45797;47.466;9.486;2023-02-04T04:22:12;97154.88;;;8.38;63.48
37892;BME280;45797;47.466;9.486;2023-02-04T04:27:15;97141.69;;;8.41;64.03
37892;BME280;45797;47.466;9.486;2023-02-04T04:32:16;97146.00;;;8.42;63.82
37892;BME280;45797;47.466;9.486;2023-02-04T04:37:26;97169.47;;;8.44;63.55
37892;BME280;45797;47.466;9.486;2023-02-04T04:42:27;97160.66;;;8.46;63.90
37892;BME280;45797;47.466;9.486;2023-02-04T04:47:28;97155.22;;;8.51;64.21
37892;BME280;45797;47.466;9.486;2023-02-04T04:52:29;97157.66;;;8.55;63.77
37892;BME280;45797;47.466;9.486;2023-02-04T04:57:38;97161.97;;;8.56;64.00
37892;BME280;45797;47.466;9.486;2023-02-04T05:02:43;97169.59;;;8.61;63.96
37892;BME280;45797;47.466;9.486;2023-02-04T05:07:46;97168.63;;;8.64;63.90
37892;BME280;45797;47.466;9.486;2023-02-04T05:12:46;97163.50;;;8.61;64.15
37892;BME280;45797;47.466;9.486;2023-02-04T05:17:46;97162.66;;;8.60;64.16
37892;BME280;45797;47.466;9.486;2023-02-04T05:22:47;97172.16;;;8.63;64.25
37892;BME280;45797;47.466;9.486;2023-02-04T05:27:53;97176.50;;;8.62;64.19
37892;BME280;45797;47.466;9.486;2023-02-04T05:32:53;97173.97;;;8.61;64.27
37892;BME280;45797;47.466;9.486;2023-02-04T05:37:54;97189.69;;;8.59;64.25
37892;BME280;45797;47.466;9.486;2023-02-04T05:42:56;97203.50;;;8.63;64.53
37892;BME280;45797;47.466;9.486;2023-02-04T05:47:57;97205.28;;;8.61;64.76
37892;BME280;45797;47.466;9.486;2023-02-04T05:53:08;97213.47;;;8.53;64.42
37892;BME280;45797;47.466;9.486;2023-02-04T05:58:10;97223.16;;;8.49;65.09
37892;BME280;45797;47.466;9.486;2023-02-04T06:03:14;97216.25;;;8.48;65.23
37892;BME280;45797;47.466;9.486;2023-02-04T06:08:22;97227.69;;;8.46;65.23
37892;BME280;45797;47.466;9.486;2023-02-04T06:13:33;97228.63;;;8.43;65.69
37892;BME280;45797;47.466;9.486;2023-02-04T06:18:34;97237.28;;;8.45;65.74
37892;BME280;45797;47.466;9.486;2023-02-04T06:23:50;97240.97;;;8.40;65.56
37892;BME280;45797;47.466;9.486;2023-02-04T06:28:53;97250.69;;;8.36;66.00
37892;BME280;45797;47.466;9.486;2023-02-04T06:34:04;97256.69;;;8.15;66.23
37892;BME280;45797;47.466;9.486;2023-02-04T06:39:05;97256.69;;;8.15;66.53
37892;BME280;45797;47.466;9.486;2023-02-04T06:44:07;97265.44;;;8.14;66.89
37892;BME280;45797;47.466;9.486;2023-02-04T06:49:26;97275.44;;;8.02;67.02
37892;BME280;45797;47.466;9.486;2023-02-04T06:54:33;97268.28;;;8.08;67.12
37892;BME280;45797;47.466;9.486;2023-02-04T06:59:46;97278.72;;;8.08;67.03
37892;BME280;45797;47.466;9.486;2023-02-04T07:04:50;97288.06;;;8.13;66.79
37892;BME280;45797;47.466;9.486;2023-02-04T07:09:59;97305.47;;;8.13;67.16
37892;BME280;45797;47.466;9.486;2023-02-04T07:15:01;97309.78;;;8.14;67.31
37892;BME280;45797;47.466;9.486;2023-02-04T07:20:02;97309.69;;;8.17;66.80
37892;BME280;45797;47.466;9.486;2023-02-04T07:25:03;97319.22;;;8.18;66.99
37892;BME280;45797;47.466;9.486;2023-02-04T07:30:03;97327.00;;;8.19;67.11
37892;BME280;45797;47.466;9.486;2023-02-04T07:35:04;97323.66;;;8.16;67.92
37892;BME280;45797;47.466;9.486;2023-02-04T07:40:05;97331.56;;;8.13;67.85
37892;BME280;45797;47.466;9.486;2023-02-04T07:45:06;97338.50;;;8.14;67.70
37892;BME280;45797;47.466;9.486;2023-02-04T07:50:06;97339.41;;;8.13;67.74
37892;BME280;45797;47.466;9.486;2023-02-04T07:55:16;97339.53;;;8.10;67.72
37892;BME280;45797;47.466;9.486;2023-02-04T08:00:17;97340.66;;;8.02;68.23
37892;BME280;45797;47.466;9.486;2023-02-04T08:05:17;97351.03;;;8.04;67.95
37892;BME280;45797;47.466;9.486;2023-02-04T08:10:18;97359.44;;;8.12;68.10
37892;BME280;45797;47.466;9.486;2023-02-04T08:15:20;97354.97;;;8.16;67.83
37892;BME280;45797;47.466;9.486;2023-02-04T08:20:20;97363.59;;;8.18;67.95
37892;BME280;45797;47.466;9.486;2023-02-04T08:25:22;97359.03;;;8.23;68.01
37892;BME280;45797;47.466;9.486;2023-02-04T08:30:24;97366.78;;;8.26;68.00
37892;BME280;45797;47.466;9.486;2023-02-04T08:35:51;97366.94;;;8.21;67.94
37892;BME280;45797;47.466;9.486;2023-02-04T08:40:58;97360.44;;;8.31;68.01
37892;BME280;45797;47.466;9.486;2023-02-04T08:45:59;97355.09;;;8.36;68.45
37892;BME280;45797;47.466;9.486;2023-02-04T08:51:17;97363.72;;;8.38;68.03
37892;BME280;45797;47.466;9.486;2023-02-04T08:56:26;97368.94;;;8.38;68.02
37892;BME280;45797;47.466;9.486;2023-02-04T09:01:26;97363.59;;;8.41;68.13
37892;BME280;45797;47.466;9.486;2023-02-04T09:06:29;97362.59;;;8.45;68.24
37892;BME280;45797;47.466;9.486;2023-02-04T09:11:30;97369.13;;;8.32;68.39
37892;BME280;45797;47.466;9.486;2023-02-04T09:16:32;97379.91;;;8.23;68.31
37892;BME280;45797;47.466;9.486;2023-02-04T09:21:37;97388.06;;;8.15;69.18
37892;BME280;45797;47.466;9.486;2023-02-04T09:26:39;97388.25;;;8.09;69.24
37892;BME280;45797;47.466;9.486;2023-02-04T09:31:42;97398.84;;;8.05;69.11
37892;BME280;45797;47.466;9.486;2023-02-04T09:36:51;97395.00;;;8.15;69.15
37892;BME280;45797;47.466;9.486;2023-02-04T09:41:54;97399.78;;;8.27;68.77
37892;BME280;45797;47.466;9.486;2023-02-04T09:46:58;97403.19;;;8.29;68.91
37892;BME280;45797;47.466;9.486;2023-02-04T09:52:02;97406.72;;;8.28;68.94
37892;BME280;45797;47.466;9.486;2023-02-04T09:57:13;97414.31;;;8.34;68.89
37892;BME280;45797;47.466;9.486;2023-02-04T10:02:21;97402.41;;;8.50;68.81
37892;BME280;45797;47.466;9.486;2023-02-04T10:07:23;97399.00;;;8.72;68.48
37892;BME280;45797;47.466;9.486;2023-02-04T10:12:26;97391.25;;;8.92;67.41
37892;BME280;45797;47.466;9.486;2023-02-04T10:17:29;97400.13;;;9.10;67.29
37892;BME280;45797;47.466;9.486;2023-02-04T10:22:29;97409.03;;;9.26;67.19
37892;BME280;45797;47.466;9.486;2023-02-04T10:27:32;97414.72;;;9.36;67.01
37892;BME280;45797;47.466;9.486;2023-02-04T10:32:41;97407.16;;;9.30;66.67
37892;BME280;45797;47.466;9.486;2023-02-04T10:37:45;97400.22;;;9.29;67.07
37892;BME280;45797;47.466;9.486;2023-02-04T10:43:15;97394.69;;;9.14;66.98
37892;BME280;45797;47.466;9.486;2023-02-04T10:48:18;97393.13;;;9.10;67.14
37892;BME280;45797;47.466;9.486;2023-02-04T10:53:20;97400.84;;;9.13;67.46
37892;BME280;45797;47.466;9.486;2023-02-04T10:58:41;97403.16;;;9.21;67.03
37892;BME280;45797;47.466;9.486;2023-02-04T11:03:42;97398.41;;;9.31;67.13
37892;BME280;45797;47.466;9.486;2023-02-04T11:08:42;97398.94;;;9.39;66.42
37892;BME280;45797;47.466;9.486;2023-02-04T11:13:56;97386.25;;;9.50;66.50
37892;BME280;45797;47.466;9.486;2023-02-04T11:18:59;97385.66;;;9.64;66.22
37892;BME280;45797;47.466;9.486;2023-02-04T11:29:31;97371.03;;;10.19;65.36
37892;BME280;45797;47.466;9.486;2023-02-04T11:34:48;97369.03;;;10.45;64.78
37892;BME280;45797;47.466;9.486;2023-02-04T11:39:57;97372.50;;;10.45;64.65
37892;BME280;45797;47.466;9.486;2023-02-04T11:45:00;97377.72;;;10.26;65.00
37892;BME280;45797;47.466;9.486;2023-02-04T11:50:12;97382.56;;;10.15;65.35
37892;BME280;45797;47.466;9.486;2023-02-04T11:55:13;97375.50;;;10.17;65.26
37892;BME280;45797;47.466;9.486;2023-02-04T12:00:17;97375.88;;;10.28;64.93
37892;BME280;45797;47.466;9.486;2023-02-04T12:05:35;97376.47;;;10.54;64.69
37892;BME280;45797;47.466;9.486;2023-02-04T12:10:38;97375.22;;;10.80;64.63
37892;BME280;45797;47.466;9.486;2023-02-04T12:16:15;97381.81;;;10.88;63.89
37892;BME280;45797;47.466;9.486;2023-02-04T12:21:17;97379.78;;;10.76;64.11
37892;BME280;45797;47.466;9.486;2023-02-04T12:26:21;97375.19;;;10.81;63.95
37892;BME280;45797;47.466;9.486;2023-02-04T12:31:22;97377.22;;;10.94;63.63
37892;BME280;45797;47.466;9.486;2023-02-04T12:36:33;97378.00;;;10.96;64.19
37892;BME280;45797;47.466;9.486;2023-02-04T12:41:33;97386.97;;;11.09;63.22
37892;BME280;45797;47.466;9.486;2023-02-04T12:46:35;97386.34;;;11.04;63.65
37892;BME280;45797;47.466;9.486;2023-02-04T12:51:41;97394.69;;;11.12;63.63
37892;BME280;45797;47.466;9.486;2023-02-04T12:56:41;97391.50;;;11.41;62.43
37892;BME280;45797;47.466;9.486;2023-02-04T13:01:52;97390.34;;;11.47;61.88
37892;BME280;45797;47.466;9.486;2023-02-04T13:06:52;97402.59;;;11.29;63.04
37892;BME280;45797;47.466;9.486;2023-02-04T13:11:53;97406.91;;;11.30;62.78
37892;BME280;45797;47.466;9.486;2023-02-04T13:16:53;97401.63;;;11.49;62.46
37892;BME280;45797;47.466;9.486;2023-02-04T13:22:00;97400.84;;;11.47;62.06
37892;BME280;45797;47.466;9.486;2023-02-04T13:27:02;97412.31;;;11.44;62.37
37892;BME280;45797;47.466;9.486;2023-02-04T13:32:03;97416.69;;;11.27;62.69
37892;BME280;45797;47.466;9.486;2023-02-04T13:37:03;97416.09;;;11.03;62.89
37892;BME280;45797;47.466;9.486;2023-02-04T13:42:04;97423.91;;;10.85;63.68
37892;BME280;45797;47.466;9.486;2023-02-04T13:47:06;97431.06;;;10.63;63.92
37892;BME280;45797;47.466;9.486;2023-02-04T13:52:07;97435.78;;;10.36;64.34
37892;BME280;45797;47.466;9.486;2023-02-04T13:57:08;97443.28;;;10.03;64.72
37892;BME280;45797;47.466;9.486;2023-02-04T14:02:10;97449.13;;;9.69;65.50
37892;BME280;45797;47.466;9.486;2023-02-04T14:07:10;97452.63;;;9.48;66.05
37892;BME280;45797;47.466;9.486;2023-02-04T14:12:15;97457.25;;;9.41;66.18
37892;BME280;45797;47.466;9.486;2023-02-04T14:17:15;97471.34;;;9.37;66.06
37892;BME280;45797;47.466;9.486;2023-02-04T14:22:22;97466.00;;;9.40;65.45
37892;BME280;45797;47.466;9.486;2023-02-04T14:27:24;97480.38;;;9.30;65.87
37892;BME280;45797;47.466;9.486;2023-02-04T14:32:33;97486.59;;;9.26;65.70
37892;BME280;45797;47.466;9.486;2023-02-04T14:37:33;97486.88;;;9.20;66.10
37892;BME280;45797;47.466;9.486;2023-02-04T14:42:41;97488.78;;;9.14;65.78
37892;BME280;45797;47.466;9.486;2023-02-04T14:47:51;97485.03;;;9.22;65.81
37892;BME280;45797;47.466;9.486;2023-02-04T14:52:53;97483.50;;;9.16;66.01
37892;BME280;45797;47.466;9.486;2023-02-04T14:58:06;97484.91;;;9.25;65.83
37892;BME280;45797;47.466;9.486;2023-02-04T15:03:07;97489.13;;;9.29;66.00
37892;BME280;45797;47.466;9.486;2023-02-04T15:08:08;97494.09;;;9.35;66.33
37892;BME280;45797;47.466;9.486;2023-02-04T15:13:10;97498.41;;;9.36;65.69
37892;BME280;45797;47.466;9.486;2023-02-04T15:18:10;97504.63;;;9.33;65.62
37892;BME280;45797;47.466;9.486;2023-02-04T15:23:12;97501.88;;;9.36;65.90
37892;BME280;45797;47.466;9.486;2023-02-04T15:28:15;97502.97;;;9.31;65.96
37892;BME280;45797;47.466;9.486;2023-02-04T15:33:16;97515.13;;;9.32;65.75
37892;BME280;45797;47.466;9.486;2023-02-04T15:38:24;97497.81;;;9.29;65.67
37892;BME280;45797;47.466;9.486;2023-02-04T15:43:26;97503.06;;;9.28;65.96
37892;BME280;45797;47.466;9.486;2023-02-04T15:48:28;97493.66;;;9.24;66.07
37892;BME280;45797;47.466;9.486;2023-02-04T15:53:31;97494.72;;;9.20;66.29
37892;BME280;45797;47.466;9.486;2023-02-04T15:58:34;97495.84;;;9.12;66.29
37892;BME280;45797;47.466;9.486;2023-02-04T16:03:38;97495.09;;;9.09;65.88
37892;BME280;45797;47.466;9.486;2023-02-04T16:08:48;97495.41;;;9.01;66.26
37892;BME280;45797;47.466;9.486;2023-02-04T16:13:49;97505.91;;;9.00;66.09
37892;BME280;45797;47.466;9.486;2023-02-04T16:18:58;97503.63;;;8.91;66.31
37892;BME280;45797;47.466;9.486;2023-02-04T16:24:08;97514.44;;;8.81;66.19
37892;BME280;45797;47.466;9.486;2023-02-04T16:29:23;97514.03;;;8.69;66.65
37892;BME280;45797;47.466;9.486;2023-02-04T16:34:33;97531.00;;;8.57;66.90
37892;BME280;45797;47.466;9.486;2023-02-04T16:39:35;97531.28;;;8.49;66.96
37892;BME280;45797;47.466;9.486;2023-02-04T16:44:38;97541.13;;;8.41;67.19
37892;BME280;45797;47.466;9.486;2023-02-04T16:49:40;97539.72;;;8.31;67.52
37892;BME280;45797;47.466;9.486;2023-02-04T16:54:46;97545.97;;;8.27;67.35
37892;BME280;45797;47.466;9.486;2023-02-04T16:59:46;97554.94;;;8.18;67.27
37892;BME280;45797;47.466;9.486;2023-02-04T17:04:47;97562.13;;;8.12;67.24
37892;BME280;45797;47.466;9.486;2023-02-04T17:09:48;97557.13;;;8.06;67.88
37892;BME280;45797;47.466;9.486;2023-02-04T17:15:03;97566.13;;;7.95;67.50
37892;BME280;45797;47.466;9.486;2023-02-04T17:20:07;97568.84;;;7.92;67.75
37892;BME280;45797;47.466;9.486;2023-02-04T17:25:08;97563.81;;;7.88;67.88
37892;BME280;45797;47.466;9.486;2023-02-04T17:30:08;97566.59;;;7.82;67.95
37892;BME280;45797;47.466;9.486;2023-02-04T17:35:19;97556.34;;;7.77;67.81
37892;BME280;45797;47.466;9.486;2023-02-04T17:40:23;97558.03;;;7.78;67.79
37892;BME280;45797;47.466;9.486;2023-02-04T17:45:39;97554.81;;;7.70;67.60
37892;BME280;45797;47.466;9.486;2023-02-04T17:50:59;97557.47;;;7.68;67.76
37892;BME280;45797;47.466;9.486;2023-02-04T17:56:02;97565.25;;;7.70;67.91
37892;BME280;45797;47.466;9.486;2023-02-04T18:01:16;97566.28;;;7.64;67.99
37892;BME280;45797;47.466;9.486;2023-02-04T18:06:24;97567.06;;;7.66;67.68
37892;BME280;45797;47.466;9.486;2023-02-04T18:11:35;97562.69;;;7.68;67.37
37892;BME280;45797;47.466;9.486;2023-02-04T18:16:38;97567.97;;;7.65;67.20
37892;BME280;45797;47.466;9.486;2023-02-04T18:21:38;97561.22;;;7.60;67.42
37892;BME280;45797;47.466;9.486;2023-02-04T18:26:51;97574.38;;;7.55;67.66
37892;BME280;45797;47.466;9.486;2023-02-04T18:31:55;97570.31;;;7.47;68.14
37892;BME280;45797;47.466;9.486;2023-02-04T18:42:45;97573.88;;;7.44;67.40
37892;BME280;45797;47.466;9.486;2023-02-04T18:47:57;97574.72;;;7.44;67.29
37892;BME280;45797;47.466;9.486;2023-02-04T18:58:27;97579.19;;;7.41;67.77
37892;BME280;45797;47.466;9.486;2023-02-04T19:03:32;97578.22;;;7.43;67.79
37892;BME280;45797;47.466;9.486;2023-02-04T19:13:41;97591.25;;;7.43;67.41
37892;BME280;45797;47.466;9.486;2023-02-04T19:18:44;97588.66;;;7.43;67.85
37892;BME280;45797;47.466;9.486;2023-02-04T19:24:21;97591.66;;;7.31;67.28
37892;BME280;45797;47.466;9.486;2023-02-04T19:34:36;97597.94;;;7.24;67.51
37892;BME280;45797;47.466;9.486;2023-02-04T19:39:39;97591.13;;;7.20;67.80
37892;BME280;45797;47.466;9.486;2023-02-04T19:44:41;97585.38;;;7.07;68.49
37892;BME280;45797;47.466;9.486;2023-02-04T19:49:42;97580.22;;;7.06;68.14
37892;BME280;45797;47.466;9.486;2023-02-04T19:54:43;97587.13;;;7.07;67.90
37892;BME280;45797;47.466;9.486;2023-02-04T19:59:45;97574.22;;;7.04;68.08
37892;BME280;45797;47.466;9.486;2023-02-04T20:04:47;97582.09;;;7.01;68.13
37892;BME280;45797;47.466;9.486;2023-02-04T20:09:53;97583.94;;;6.97;68.10
37892;BME280;45797;47.466;9.486;2023-02-04T20:14:59;97577.19;;;6.90;67.94
37892;BME280;45797;47.466;9.486;2023-02-04T20:20:15;97576.53;;;6.83;68.30
37892;BME280;45797;47.466;9.486;2023-02-04T20:30:27;97589.72;;;6.77;68.28
37892;BME280;45797;47.466;9.486;2023-02-04T20:40:34;97604.53;;;6.75;68.17
37892;BME280;45797;47.466;9.486;2023-02-04T20:45:37;97596.78;;;6.74;67.77
37892;BME280;45797;47.466;9.486;2023-02-04T20:50:50;97603.03;;;6.67;68.32
37892;BME280;45797;47.466;9.486;2023-02-04T20:55:55;97600.47;;;6.65;68.09
37892;BME280;45797;47.466;9.486;2023-02-04T21:06:36;97603.31;;;6.56;68.12
37892;BME280;45797;47.466;9.486;2023-02-04T21:11:37;97619.78;;;6.56;68.17
37892;BME280;45797;47.466;9.486;2023-02-04T21:16:39;97608.69;;;6.50;68.08
37892;BME280;45797;47.466;9.486;2023-02-04T21:21:48;97616.69;;;6.42;67.94
37892;BME280;45797;47.466;9.486;2023-02-04T21:26:59;97617.72;;;6.37;68.31
37892;BME280;45797;47.466;9.486;2023-02-04T21:31:59;97622.25;;;6.28;68.40
37892;BME280;45797;47.466;9.486;2023-02-04T21:37:10;97629.34;;;6.22;68.06
37892;BME280;45797;47.466;9.486;2023-02-04T21:42:11;97634.69;;;6.17;68.81
37892;BME280;45797;47.466;9.486;2023-02-04T21:47:14;97640.03;;;6.11;68.36
37892;BME280;45797;47.466;9.486;2023-02-04T21:52:33;97640.28;;;6.00;68.55
37892;BME280;45797;47.466;9.486;2023-02-04T21:57:37;97643.69;;;6.03;68.78
37892;BME280;45797;47.466;9.486;2023-02-04T22:02:37;97651.63;;;5.98;68.78
37892;BME280;45797;47.466;9.486;2023-02-04T22:07:38;97656.94;;;5.92;68.87
37892;BME280;45797;47.466;9.486;2023-02-04T22:12:40;97656.25;;;5.84;69.47
37892;BME280;45797;47.466;9.486;2023-02-04T22:17:44;97656.31;;;5.81;69.19
37892;BME280;45797;47.466;9.486;2023-02-04T22:22:46;97660.84;;;5.72;69.20
37892;BME280;45797;47.466;9.486;2023-02-04T22:27:48;97658.41;;;5.65;69.36
37892;BME280;45797;47.466;9.486;2023-02-04T22:32:49;97666.31;;;5.60;69.43
37892;BME280;45797;47.466;9.486;2023-02-04T22:37:52;97669.00;;;5.56;69.87
37892;BME280;45797;47.466;9.486;2023-02-04T22:43:00;97670.94;;;5.46;69.83
37892;BME280;45797;47.466;9.486;2023-02-04T22:48:08;97672.75;;;5.42;69.63
37892;BME280;45797;47.466;9.486;2023-02-04T22:53:15;97676.25;;;5.40;69.80
37892;BME280;45797;47.466;9.486;2023-02-04T22:58:18;97675.38;;;5.41;69.51
37892;BME280;45797;47.466;9.486;2023-02-04T23:03:25;97665.97;;;5.35;69.98
37892;BME280;45797;47.466;9.486;2023-02-04T23:08:25;97664.34;;;5.31;70.00
37892;BME280;45797;47.466;9.486;2023-02-04T23:13:28;97669.53;;;5.31;70.07
37892;BME280;45797;47.466;9.486;2023-02-04T23:18:31;97673.91;;;5.28;69.42
37892;BME280;45797;47.466;9.486;2023-02-04T23:23:31;97668.91;;;5.19;69.88
37892;BME280;45797;47.466;9.486;2023-02-04T23:28:38;97672.38;;;5.18;69.70
37892;BME280;45797;47.466;9.486;2023-02-04T23:33:40;97662.09;;;5.13;70.13
37892;BME280;45797;47.466;9.486;2023-02-04T23:38:40;97660.47;;;5.07;70.26
37892;BME280;45797;47.466;9.486;2023-02-04T23:43:41;97659.66;;;5.05;69.95
37892;BME280;45797;47.466;9.486;2023-02-04T23:48:41;97661.44;;;5.03;70.43
37892;BME280;45797;47.466;9.486;2023-02-04T23:53:42;97664.94;;;5.01;69.77
37892;BME280;45797;47.466;9.486;2023-02-04T23:58:53;97666.69;;;4.99;69.87
